AirNav   Duncan Aviation - Near you to keep you flying
 
 1468 users online  

CA42 Mc Conville Airstrip
Lake Elsinore, California, USA

GOING TO LAKE ELSINORE?


FAA INFORMATION EFFECTIVE 02 DECEMBER 2021

Location

FAA Identifier: CA42
Lat/Long: 33-38-37.0000N 117-25-45.0000W
33-38.616667N 117-25.750000W
33.6436111,-117.4291667
(estimated)
Elevation: 2600 ft. / 792 m (estimated)
Variation: 14E (1995)
From city: 7 miles W of LAKE ELSINORE, CA
Time zone: UTC -8 (UTC -7 during Daylight Saving Time)
Zip code: 92530

Airport Operations

Airport use: Private use. Permission required prior to landing
Activation date: 05/1999
Control tower: no
ARTCC: LOS ANGELES CENTER
FSS: RIVERSIDE FLIGHT SERVICE STATION
Attendance: UNATNDD
Wind indicator: yes
Segmented circle: no

Airport Communications

WX AWOS-3 at F70 (16 nm E): 119.025 (951-696-1018)
WX AWOS-3PT at AJO (18 nm NW): 132.175 (951-340-4764)
WX ASOS at RAL (19 nm N): 128.8 (951-352-4392)
WX AWOS-3P at L18 (20 nm SE): 118.425 (760-723-6073)

Nearby radio navigation aids

VOR radial/distance  VOR name  Freq  Var
HDFr223/(14.5)HOMELAND VOR113.4014E
ELBr083/15.2EL TORO VOR/DME117.2014E
PDZr148/17.2PARADISE VORTAC112.2015E
RALr163/(18.7)RIVERSIDE VOR112.4014E
OCNr344/24.2OCEANSIDE VORTAC115.3015E
POMr131/31.6POMONA VORTAC110.4015E
SLIr090/32.3SEAL BEACH VORTAC115.7015E

Airport Services

Runway Information

Runway 18/36

Dimensions: 1800 x 50 ft. / 549 x 15 m
Surface: gravel
RUNWAY 18  RUNWAY 36
Traffic pattern: leftleft

Airport Ownership and Management from official FAA records

Ownership: Privately-owned
Owner: THE PRESERVE AT SAN JUAN LLC
31877 DEL OBISPO STREET, SUITE 206
SAN JUAN CAPISTRANO, CA 92675
Phone 949-296-3078
Manager: ANNA MARIE WILLIAMS
32895 ORTEGA HWY
LAKE ELSINORE, CA 92530
Phone 951-678-4494

Additional Remarks

"R" ON RY TO DENOTE PRIVATE.
SEND ALL CORRESPONDENCE TO ARPT MGR.
FOR CD CTC LOS ANGELES ARTCC AT 661-575-2079.

Instrument Procedures

There are no published instrument procedures at CA42.

Some nearby airports with instrument procedures:

F70 - French Valley Airport (16 nm E)
KRIV - March Air Reserve Base (17 nm NE)
KAJO - Corona Municipal Airport (18 nm NW)
KRAL - Riverside Municipal Airport (19 nm N)
L18 - Fallbrook Community Airpark (20 nm SE)
 
Loc | Ops | Rwys | IFR | FBO | Links
Com | Nav | Svcs | Stats | Notes

Luxivair - San Bernardino International Airport
 
Area around CA42 (Mc Conville Airstrip)
 
Road maps at: MapQuest Bing Google
 
Aerial photo
No photo
 
Sectional chart

 
Airport distance calculator
Flying to Mc Conville Airstrip? Find the distance to fly.

From to CA42

Sunrise and sunset
Times for 06-Dec-2021
 Local
(UTC-8)
 Zulu
(UTC)
Morning civil twilight06:1414:14
Sunrise06:4114:41
Sunset16:4000:40
Evening civil twilight17:0801:08

Current date and time
Zulu (UTC)  06-Dec-2021 16:49:43
Local (UTC-8)  06-Dec-2021 08:49:43
 
METAR
KF70 
16nm E 
061635Z AUTO 00000KT 7SM CLR 11/02 A3010 RMK AO2
KRIV 
16nm NE 
061558Z AUTO 00000KT 9SM CLR 09/01 A3008 RMK AO2 SLP187 T00890011
KAJO 
18nm NW 
061613Z AUTO 00000KT 2 1/2SM BR SCT004 04/04 A3011 RMK AO2
KRAL 
18nm N 
061553Z 00000KT 5SM HZ CLR 08/05 A3009 RMK AO2 SLP181 T00830050
KL18 
20nm SE 
061635Z AUTO 00000KT 10SM CLR 16/05 A3009 RMK AO2
KHMT 
21nm E 
061635Z AUTO 00000KT 10SM CLR 13/M02 A3010 RMK AO2 T01281018
KNXF 
22nm S 
061556Z AUTO 07014G17KT 10SM CLR A3008 RMK AO2 SLPNO PWINO $
KSNA 
22nm W 
061616Z 05004KT 1/4SM R20R/0800V1000FT FG VV001 12/11 A3009 RMK AO2 T01220111 $
KNFG 
22nm S 
061555Z 00000KT 7SM CLR A3008 RMK AO2 SLPNO $
KCNO 
22nm NW 
061553Z 00000KT 1SM BR CLR 08/06 A3010 RMK AO2 SLP192 T00780061
TAF
KRIV 
16nm NE 
061205Z 0612/0718 15004KT 9999 FEW300 QNH3005INS BECMG 0618/0619 18009KT 9999 SCT250 BKN300 QNH3002INS WND 130V230 BECMG 0620/0621 32009KT 9999 SCT240 BKN300 510507 QNH2999INS TEMPO 0622/0701 32010G15KT BECMG 0703/0704 VRB05KT 9999 SCT240 BKN300 QNH2992INS BECMG 0711/0712 15006KT 9999 FEW020 SCT080 BKN120 OVC160 510009 QNH2992INS BECMG 0714/0715 15006KT 8000 -RA BR SCT010 BKN015 BKN025 OVC040 620859 510009 QNH2997INS TX24/0622Z TN04/0614Z
NOTAMs
Click for the latest NOTAMs
NOTAMs are issued by the DoD/FAA and will open in a separate window not controlled by AirNav.

 

 
 

Would you like to see your business listed on this page?

 If your business provides an interesting product or service to pilots, flight crews, aircraft, or users of the Mc Conville Airstrip, you should consider listing it here.  To start the listing process, click on the button below
 
Add a business
 

Other Pages about Mc Conville Airstrip

Update a link
 
Copyright © AirNav, LLC. All rights reserved. Privacy Policy  Contact